Time;durP1;ratioP1;P1;durP2;ratioP2;P2;SDS_P1;SDS_P2;PMS_P1;PMS_P2;Temp;Humidity;BMP_temperature;BMP_pressure;BME280_temperature;BME280_humidity;BME280_pressure;Samples;Min_cycle;Max_cycle;Signal;HPM_P1;HPM_P2
2022/06/29 00:02:19;;;;;;;6.55;3.22;;;15.50;99.90;;;;;;4827986;24;20656;-69
2022/06/29 00:15:54;;;;;;;5.78;2.85;;;15.40;99.90;;;;;;4928238;24;20054;-69
2022/06/29 00:18:20;;;;;;;5.15;3.03;;;15.40;99.90;;;;;;4797826;29;20055;-70
2022/06/29 00:20:46;;;;;;;5.47;3.00;;;15.30;99.90;;;;;;4783548;29;20152;-70
2022/06/29 00:23:11;;;;;;;3.92;2.65;;;15.30;99.90;;;;;;4784421;29;20047;-68
2022/06/29 00:25:37;;;;;;;3.47;2.90;;;15.30;99.90;;;;;;4783554;29;20069;-69
2022/06/29 00:28:03;;;;;;;2.67;2.40;;;15.30;99.90;;;;;;4799855;29;20138;-69
2022/06/29 00:30:29;;;;;;;4.25;2.70;;;15.20;99.90;;;;;;4798705;29;20074;-69
2022/06/29 00:32:54;;;;;;;4.97;2.90;;;15.20;99.90;;;;;;4798647;29;20069;-70
2022/06/29 00:35:20;;;;;;;3.78;2.80;;;15.10;99.90;;;;;;4798457;29;20386;-69
2022/06/29 00:37:45;;;;;;;8.27;3.33;;;15.10;99.90;;;;;;4798751;29;20218;-69
2022/06/29 00:40:12;;;;;;;4.07;2.92;;;15.10;99.90;;;;;;4799241;29;20055;-70
2022/06/29 00:42:37;;;;;;;5.25;2.80;;;15.10;99.90;;;;;;4798394;29;20464;-70
2022/06/29 00:45:03;;;;;;;5.15;3.20;;;15.00;99.90;;;;;;4802688;29;20055;-69
2022/06/29 00:47:29;;;;;;;5.47;3.00;;;15.00;99.90;;;;;;4802672;29;20063;-70
2022/06/29 00:49:55;;;;;;;4.30;3.17;;;15.00;99.90;;;;;;4798224;29;20421;-70
2022/06/29 00:52:24;;;;;;;3.25;2.92;;;15.00;99.90;;;;;;4798777;29;20115;-70
2022/06/29 00:54:59;;;;;;;4.22;2.90;;;15.00;99.90;;;;;;4783699;29;20149;-69
2022/06/29 00:57:27;;;;;;;4.38;2.90;;;14.90;99.90;;;;;;4782597;29;20574;-69
2022/06/29 00:59:55;;;;;;;3.20;2.90;;;14.90;99.90;;;;;;4798685;29;20046;-69
2022/06/29 01:02:23;;;;;;;5.35;3.03;;;14.90;99.90;;;;;;4776598;29;20059;-69
2022/06/29 01:04:49;;;;;;;3.67;2.97;;;14.90;99.90;;;;;;4773737;29;20550;-68
2022/06/29 01:07:23;;;;;;;3.92;3.28;;;14.80;99.90;;;;;;4781719;29;20055;-69
2022/06/29 01:09:49;;;;;;;6.93;3.63;;;14.80;99.90;;;;;;4788719;29;20058;-69
2022/06/29 01:12:15;;;;;;;4.18;3.70;;;14.80;99.90;;;;;;4778574;29;20435;-69
2022/06/29 01:14:46;;;;;;;4.97;3.83;;;14.80;99.90;;;;;;4804939;29;20088;-68
2022/06/29 01:17:12;;;;;;;3.58;3.30;;;14.80;99.90;;;;;;4806164;29;20094;-69
2022/06/29 01:19:39;;;;;;;3.63;3.33;;;14.80;99.90;;;;;;4804902;29;20081;-69
2022/06/29 01:22:11;;;;;;;4.00;3.45;;;14.80;99.90;;;;;;4790121;29;20066;-70
2022/06/29 01:24:38;;;;;;;4.63;3.70;;;14.70;99.90;;;;;;4789092;29;20142;-69
2022/06/29 01:27:04;;;;;;;4.40;3.78;;;14.70;99.90;;;;;;4781057;29;20207;-70
2022/06/29 01:29:30;;;;;;;5.47;3.80;;;14.70;99.90;;;;;;4803355;29;20576;-69
2022/06/29 01:31:56;;;;;;;8.43;3.72;;;14.60;99.90;;;;;;4795347;29;20062;-69
2022/06/29 01:34:27;;;;;;;4.50;3.25;;;14.60;99.90;;;;;;4793826;29;20043;-69
2022/06/29 01:36:53;;;;;;;6.07;4.20;;;14.60;99.90;;;;;;4798978;29;20489;-69
2022/06/29 01:39:19;;;;;;;5.65;3.47;;;14.60;99.90;;;;;;4794203;29;20087;-70
2022/06/29 01:41:45;;;;;;;6.03;4.00;;;14.60;99.90;;;;;;4787314;29;20484;-69
2022/06/29 01:44:10;;;;;;;4.35;3.95;;;14.60;99.90;;;;;;4788163;29;20059;-69
2022/06/29 01:46:36;;;;;;;6.30;3.67;;;14.60;99.90;;;;;;4786348;29;20065;-71
2022/06/29 01:49:02;;;;;;;4.78;3.60;;;14.60;99.90;;;;;;4804249;29;20556;-71
2022/06/29 01:51:27;;;;;;;6.40;3.92;;;14.60;99.90;;;;;;4788578;29;20433;-70
2022/06/29 01:53:53;;;;;;;4.35;3.88;;;14.50;99.90;;;;;;4803429;29;20501;-70
2022/06/29 01:56:19;;;;;;;6.25;3.85;;;14.50;99.90;;;;;;4789360;29;20047;-70
2022/06/29 01:58:45;;;;;;;5.32;3.88;;;14.50;99.90;;;;;;4804571;29;20069;-70
2022/06/29 02:01:12;;;;;;;4.30;3.90;;;14.50;99.90;;;;;;4788715;29;20059;-70
2022/06/29 02:03:38;;;;;;;4.85;3.95;;;14.50;99.90;;;;;;4789255;29;20055;-70
2022/06/29 02:06:04;;;;;;;4.90;4.25;;;14.40;99.90;;;;;;4804001;29;20051;-69
2022/06/29 02:08:30;;;;;;;4.32;3.92;;;14.40;99.90;;;;;;4789678;29;20064;-69
2022/06/29 02:10:56;;;;;;;4.35;3.95;;;14.40;99.90;;;;;;4798571;29;20047;-69
2022/06/29 02:13:21;;;;;;;4.03;3.60;;;14.40;99.90;;;;;;4789212;29;20063;-69
2022/06/29 02:15:47;;;;;;;8.68;3.92;;;14.40;99.90;;;;;;4788254;29;20085;-70
2022/06/29 02:18:13;;;;;;;4.80;4.18;;;14.40;99.90;;;;;;4788352;29;20070;-69
2022/06/29 02:20:38;;;;;;;6.93;4.15;;;14.30;99.90;;;;;;4788149;29;20082;-70
2022/06/29 02:23:04;;;;;;;5.38;3.80;;;14.40;99.90;;;;;;4788738;29;20400;-70
2022/06/29 02:25:30;;;;;;;5.78;3.92;;;14.30;99.90;;;;;;4803994;29;20089;-69
2022/06/29 02:27:55;;;;;;;4.97;4.47;;;14.40;99.90;;;;;;4805334;29;20520;-69
2022/06/29 02:34:43;;;;;;;5.47;4.55;;;14.40;99.90;;;;;;4787021;29;20069;-70
2022/06/29 02:35:53;;;;;;;5.32;4.00;;;14.40;99.90;;;;;;4776250;29;20042;-69
2022/06/29 02:38:19;;;;;;;5.05;4.20;;;14.40;99.90;;;;;;4788643;29;20100;-70
2022/06/29 02:40:45;;;;;;;6.53;4.38;;;14.40;99.90;;;;;;4784933;29;20123;-70
2022/06/29 02:43:10;;;;;;;7.05;4.47;;;14.40;99.90;;;;;;4789284;29;20086;-70
2022/06/29 02:45:36;;;;;;;7.15;4.80;;;14.40;99.90;;;;;;4788190;29;20055;-70
2022/06/29 02:48:02;;;;;;;4.78;4.35;;;14.40;99.90;;;;;;4787208;29;20062;-70
2022/06/29 02:50:28;;;;;;;6.07;4.32;;;14.40;99.90;;;;;;4803908;29;20059;-70
2022/06/29 02:52:54;;;;;;;6.88;4.80;;;14.40;99.90;;;;;;4804987;29;20394;-71
2022/06/29 02:55:19;;;;;;;6.22;4.60;;;14.40;99.90;;;;;;4803269;29;20086;-69
2022/06/29 02:57:45;;;;;;;5.40;4.90;;;14.50;99.90;;;;;;4788786;29;20111;-69
2022/06/29 03:00:18;;;;;;;7.38;3.97;;;14.50;99.90;;;;;;4802533;29;20051;-70
2022/06/29 03:02:44;;;;;;;4.57;4.13;;;14.40;99.90;;;;;;4786053;29;20054;-70
2022/06/29 03:05:10;;;;;;;5.60;4.75;;;14.40;99.90;;;;;;4801696;29;20047;-69
2022/06/29 03:07:36;;;;;;;5.10;4.60;;;14.50;99.90;;;;;;4792135;29;20414;-70
2022/06/29 03:10:02;;;;;;;5.47;4.35;;;14.50;99.90;;;;;;4791447;29;20420;-70
2022/06/29 03:12:36;;;;;;;6.20;4.60;;;14.40;99.90;;;;;;4788925;29;20489;-70
2022/06/29 03:15:04;;;;;;;5.22;4.38;;;14.40;99.90;;;;;;4789850;29;20479;-69
2022/06/29 03:17:30;;;;;;;6.20;4.60;;;14.40;99.90;;;;;;4787786;29;20062;-69
2022/06/29 03:19:58;;;;;;;5.38;4.85;;;14.40;99.90;;;;;;4789206;29;20051;-69
2022/06/29 03:22:25;;;;;;;5.57;4.93;;;14.40;99.90;;;;;;4790493;29;20378;-69
2022/06/29 03:25:16;;;;;;;5.80;5.00;;;14.40;99.90;;;;;;4771352;30;20458;-70
2022/06/29 03:28:01;;;;;;;5.30;4.78;;;14.40;99.90;;;;;;4756683;30;20063;-70
2022/06/29 03:30:30;;;;;;;4.95;4.45;;;14.30;99.90;;;;;;4787498;29;20517;-70
2022/06/29 03:32:56;;;;;;;7.53;4.47;;;14.40;99.90;;;;;;4787064;29;20043;-70
2022/06/29 03:35:21;;;;;;;5.90;5.10;;;14.30;99.90;;;;;;4790479;29;20450;-71
2022/06/29 03:37:47;;;;;;;5.32;4.70;;;14.30;99.90;;;;;;4788271;29;20055;-71
2022/06/29 03:40:38;;;;;;;5.40;4.70;;;14.30;99.90;;;;;;4784352;29;20552;-71
2022/06/29 03:43:14;;;;;;;8.23;5.15;;;14.30;99.90;;;;;;4787212;29;20066;-71
2022/06/29 03:45:39;;;;;;;6.68;5.10;;;14.30;99.90;;;;;;4789147;30;20070;-72
2022/06/29 03:48:06;;;;;;;6.07;4.82;;;14.20;99.90;;;;;;4786543;29;20055;-70
2022/06/29 03:50:32;;;;;;;5.93;5.45;;;14.30;99.90;;;;;;4790295;29;20066;-70
2022/06/29 03:52:58;;;;;;;5.40;4.50;;;14.30;99.90;;;;;;4788806;29;20059;-70
2022/06/29 03:55:23;;;;;;;5.13;4.72;;;14.30;99.90;;;;;;4794898;29;20408;-69
2022/06/29 03:57:49;;;;;;;5.40;4.90;;;14.40;99.90;;;;;;4787286;30;20063;-69
2022/06/29 04:00:15;;;;;;;5.50;5.00;;;14.40;99.90;;;;;;4790065;29;20051;-69
2022/06/29 04:02:41;;;;;;;5.35;4.78;;;14.40;99.90;;;;;;4784957;30;20413;-69
2022/06/29 04:05:07;;;;;;;6.32;4.95;;;14.40;99.90;;;;;;4772077;30;20134;-68
2022/06/29 04:07:33;;;;;;;5.30;4.90;;;14.40;99.90;;;;;;4783556;30;20059;-69
2022/06/29 04:09:59;;;;;;;5.38;4.97;;;14.40;99.90;;;;;;4771067;30;20382;-69
2022/06/29 04:12:36;;;;;;;7.15;4.80;;;14.40;99.90;;;;;;4776331;29;20088;-69
2022/06/29 04:15:03;;;;;;;7.60;5.40;;;14.40;99.90;;;;;;4798588;29;20062;-71
2022/06/29 04:17:29;;;;;;;6.05;5.30;;;14.50;99.90;;;;;;4789490;29;20067;-71
2022/06/29 04:19:54;;;;;;;5.00;4.57;;;14.50;99.90;;;;;;4777551;29;20051;-71
2022/06/29 04:22:20;;;;;;;5.82;5.20;;;14.50;99.90;;;;;;4787989;30;20059;-70
2022/06/29 04:24:47;;;;;;;5.95;5.22;;;14.60;99.90;;;;;;4798869;29;20055;-71
2022/06/29 04:27:13;;;;;;;5.45;4.95;;;14.70;99.90;;;;;;4790695;29;20135;-71
2022/06/29 04:29:38;;;;;;;6.68;5.10;;;14.60;99.90;;;;;;4789371;29;20070;-71
2022/06/29 04:32:04;;;;;;;6.30;5.13;;;14.70;99.90;;;;;;4806485;29;20125;-71
2022/06/29 04:34:30;;;;;;;5.43;4.93;;;14.70;99.90;;;;;;4790306;29;20512;-71
2022/06/29 04:36:56;;;;;;;5.72;5.15;;;14.70;99.90;;;;;;4790108;29;20378;-71
2022/06/29 04:39:22;;;;;;;5.47;4.97;;;14.80;99.90;;;;;;4807500;29;20054;-70
2022/06/29 04:41:48;;;;;;;6.18;5.00;;;14.90;99.90;;;;;;4786276;29;20103;-69
2022/06/29 04:44:14;;;;;;;5.97;4.90;;;14.90;99.90;;;;;;4806025;29;20134;-68
2022/06/29 04:46:40;;;;;;;6.18;5.13;;;14.90;99.90;;;;;;4804359;29;20055;-69
2022/06/29 04:49:06;;;;;;;6.47;5.65;;;15.00;99.90;;;;;;4787324;29;20058;-69
2022/06/29 04:51:33;;;;;;;6.72;5.68;;;15.10;99.90;;;;;;4800701;29;20062;-70
2022/06/29 04:58:05;;;;;;;6.03;5.20;;;15.20;99.90;;;;;;4804851;29;20037;-71
2022/06/29 05:00:30;;;;;;;9.95;5.65;;;15.20;99.90;;;;;;4784455;29;20525;-69
2022/06/29 05:02:56;;;;;;;6.03;5.53;;;15.30;99.90;;;;;;4800622;29;20083;-70
2022/06/29 05:05:21;;;;;;;6.07;5.45;;;15.30;99.90;;;;;;4787889;29;20070;-70
2022/06/29 05:07:47;;;;;;;5.93;5.38;;;15.40;99.90;;;;;;4803081;29;20828;-70
2022/06/29 05:10:13;;;;;;;6.93;5.88;;;15.40;99.90;;;;;;4802173;29;20130;-69
2022/06/29 05:12:38;;;;;;;5.78;5.28;;;15.50;99.90;;;;;;4786143;30;20212;-70
2022/06/29 05:15:06;;;;;;;6.28;5.57;;;15.60;99.90;;;;;;4794585;29;20074;-71
2022/06/29 05:17:36;;;;;;;7.32;5.50;;;15.60;99.90;;;;;;4805955;29;20085;-70
2022/06/29 05:20:06;;;;;;;6.20;5.70;;;15.60;99.90;;;;;;4805655;29;20051;-70
2022/06/29 05:22:57;;;;;;;5.95;5.15;;;15.80;99.90;;;;;;4790367;29;20062;-69
2022/06/29 05:25:24;;;;;;;6.28;5.78;;;16.00;99.90;;;;;;4790079;29;20057;-69
2022/06/29 05:27:49;;;;;;;6.20;5.70;;;16.00;99.90;;;;;;4805901;29;20173;-70
2022/06/29 05:30:21;;;;;;;6.38;5.78;;;16.20;99.90;;;;;;4789698;29;20142;-72
2022/06/29 05:33:12;;;;;;;6.30;5.60;;;16.40;99.90;;;;;;4772930;29;20105;-71
2022/06/29 05:36:08;;;;;;;6.20;5.30;;;17.40;99.90;;;;;;4803218;29;20042;-70
2022/06/29 05:38:39;;;;;;;6.78;5.13;;;18.90;99.90;;;;;;4806127;29;20244;-70
2022/06/29 05:41:30;;;;;;;6.65;5.50;;;19.90;99.90;;;;;;4810135;29;20050;-71
2022/06/29 05:43:56;;;;;;;5.53;4.53;;;20.90;99.90;;;;;;4793998;29;20070;-71
2022/06/29 05:46:47;;;;;;;6.15;4.68;;;21.60;99.90;;;;;;4805098;29;20047;-69
2022/06/29 05:49:12;;;;;;;4.80;4.40;;;22.30;99.90;;;;;;4784526;29;20066;-68
2022/06/29 05:51:38;;;;;;;6.93;4.50;;;22.60;99.90;;;;;;4801246;29;20440;-69
2022/06/29 05:54:04;;;;;;;5.43;4.15;;;22.90;99.90;;;;;;4803788;29;20168;-72
2022/06/29 05:56:32;;;;;;;4.70;3.92;;;23.10;99.90;;;;;;4770627;29;20054;-67
2022/06/29 05:59:00;;;;;;;4.90;4.07;;;23.30;99.90;;;;;;4800022;29;20046;-68
2022/06/29 06:01:26;;;;;;;4.20;3.90;;;23.60;99.90;;;;;;4785725;29;20050;-69
2022/06/29 06:03:52;;;;;;;4.32;3.92;;;23.90;99.90;;;;;;4788838;29;20358;-68
2022/06/29 06:06:17;;;;;;;4.22;3.60;;;24.00;99.90;;;;;;4804987;29;20058;-68
2022/06/29 06:08:43;;;;;;;4.53;3.67;;;24.40;99.90;;;;;;4788566;29;20515;-67
2022/06/29 06:11:08;;;;;;;6.72;3.80;;;24.60;98.10;;;;;;4789697;29;20138;-69
2022/06/29 06:13:34;;;;;;;4.70;3.53;;;24.70;96.50;;;;;;4789263;29;20057;-69
2022/06/29 06:15:59;;;;;;;6.93;3.60;;;24.90;93.90;;;;;;4813927;29;20420;-70
2022/06/29 06:18:25;;;;;;;4.32;3.30;;;25.00;91.50;;;;;;4789313;29;20221;-70
2022/06/29 06:20:51;;;;;;;3.92;3.50;;;24.90;91.30;;;;;;4789347;29;20058;-70
2022/06/29 06:23:16;;;;;;;6.25;3.15;;;25.10;90.10;;;;;;4802964;29;20081;-70
2022/06/29 06:25:42;;;;;;;5.15;3.50;;;25.30;86.30;;;;;;4786442;29;20415;-70
2022/06/29 06:28:08;;;;;;;5.53;3.15;;;25.40;82.40;;;;;;4787549;29;20053;-69
2022/06/29 06:30:34;;;;;;;3.20;2.75;;;25.40;81.60;;;;;;4789035;29;20134;-70
2022/06/29 06:32:59;;;;;;;4.13;3.05;;;25.40;79.20;;;;;;4788696;29;20069;-70
2022/06/29 06:35:25;;;;;;;4.03;2.92;;;25.40;77.30;;;;;;4805673;29;20059;-70
2022/06/29 06:37:52;;;;;;;4.55;2.92;;;25.60;77.30;;;;;;4785463;29;20198;-70
2022/06/29 06:43:02;;;;;;;7.05;3.10;;;25.90;73.20;;;;;;4777426;29;20046;-70
2022/06/29 06:45:28;;;;;;;3.90;3.22;;;25.10;76.90;;;;;;4809204;29;20390;-70
2022/06/29 06:47:54;;;;;;;3.72;3.00;;;24.20;89.70;;;;;;4808508;29;20059;-68
2022/06/29 06:50:20;;;;;;;6.13;3.00;;;23.50;96.80;;;;;;4808458;29;20050;-69
2022/06/29 06:52:45;;;;;;;6.38;3.03;;;23.00;99.90;;;;;;4791273;29;20505;-69
2022/06/29 06:55:13;;;;;;;2.85;2.65;;;22.60;99.90;;;;;;4815613;29;20055;-70
2022/06/29 06:57:39;;;;;;;4.13;2.50;;;22.40;99.90;;;;;;4777919;30;20527;-69
2022/06/29 07:00:05;;;;;;;3.97;2.63;;;22.10;99.90;;;;;;4767114;29;20058;-69
2022/06/29 07:02:31;;;;;;;2.78;2.58;;;22.10;99.90;;;;;;4763437;30;20055;-69
2022/06/29 07:04:57;;;;;;;2.80;2.13;;;22.10;99.90;;;;;;4790979;29;20077;-70
2022/06/29 07:07:22;;;;;;;3.53;2.47;;;22.00;99.90;;;;;;4792192;29;20168;-68
2022/06/29 07:09:48;;;;;;;2.63;2.33;;;22.10;99.90;;;;;;4792401;29;20061;-69
2022/06/29 07:12:13;;;;;;;4.60;2.47;;;22.10;99.90;;;;;;4788447;29;20047;-70
2022/06/29 07:14:39;;;;;;;2.58;2.28;;;22.10;99.90;;;;;;4786532;29;20051;-70
2022/06/29 07:17:05;;;;;;;4.90;2.20;;;22.20;99.90;;;;;;4760363;29;20493;-71
2022/06/29 07:19:30;;;;;;;3.22;2.13;;;22.30;99.90;;;;;;4774522;30;20100;-71
2022/06/29 07:21:56;;;;;;;4.15;2.80;;;22.40;99.90;;;;;;4774207;30;20066;-71
2022/06/29 07:24:21;;;;;;;4.15;2.67;;;22.50;99.90;;;;;;4774383;29;20425;-70
2022/06/29 07:27:12;;;;;;;8.32;2.38;;;22.60;99.90;;;;;;4759203;30;20060;-69
2022/06/29 07:29:39;;;;;;;3.22;2.38;;;22.70;99.90;;;;;;4775176;29;20090;-69
2022/06/29 07:32:05;;;;;;;3.38;2.38;;;22.80;99.90;;;;;;4822363;29;20062;-71
2022/06/29 07:34:31;;;;;;;2.95;2.13;;;22.90;99.90;;;;;;4822212;29;20081;-71
2022/06/29 07:36:56;;;;;;;3.83;2.25;;;22.90;99.70;;;;;;4807637;29;20086;-71
2022/06/29 07:39:22;;;;;;;3.25;2.30;;;23.00;99.60;;;;;;4822421;29;20058;-69
2022/06/29 07:41:47;;;;;;;3.00;1.90;;;22.90;98.90;;;;;;4821672;29;20131;-70
2022/06/29 07:44:13;;;;;;;4.53;2.42;;;23.00;99.50;;;;;;4819662;29;20415;-70
2022/06/29 07:46:39;;;;;;;4.05;2.30;;;23.20;99.00;;;;;;4783401;29;20058;-70
2022/06/29 07:49:04;;;;;;;4.75;2.05;;;23.20;97.70;;;;;;4804591;29;20509;-70
2022/06/29 07:51:30;;;;;;;3.13;2.10;;;23.20;96.80;;;;;;4794074;29;20055;-70
2022/06/29 07:53:55;;;;;;;2.45;2.25;;;23.20;95.80;;;;;;4773950;30;20055;-69
2022/06/29 07:56:21;;;;;;;3.80;2.38;;;23.30;94.70;;;;;;4774048;30;20500;-70
2022/06/29 07:58:46;;;;;;;2.13;1.83;;;23.40;93.30;;;;;;4773775;29;20056;-68
2022/06/29 08:01:12;;;;;;;3.33;2.13;;;23.50;91.00;;;;;;4797584;29;20069;-71
2022/06/29 08:03:38;;;;;;;2.72;2.22;;;23.50;91.20;;;;;;4780701;29;20456;-70
2022/06/29 08:06:05;;;;;;;5.43;1.88;;;23.50;91.30;;;;;;4786368;29;20039;-72
2022/06/29 08:08:31;;;;;;;3.22;2.20;;;23.60;95.30;;;;;;4790861;29;20155;-70
2022/06/29 08:10:57;;;;;;;3.35;2.10;;;23.80;94.70;;;;;;4807965;29;20461;-69
2022/06/29 08:13:23;;;;;;;3.63;2.45;;;24.10;96.40;;;;;;4806222;29;20497;-72
2022/06/29 08:15:48;;;;;;;3.30;2.58;;;24.10;93.00;;;;;;4806335;29;20066;-70
2022/06/29 08:18:15;;;;;;;2.67;2.30;;;24.10;92.80;;;;;;4806050;29;20055;-69
2022/06/29 08:20:43;;;;;;;3.25;2.03;;;24.10;92.50;;;;;;4773994;29;20116;-69
2022/06/29 08:23:09;;;;;;;4.22;2.42;;;24.30;93.00;;;;;;4807593;29;20055;-69
2022/06/29 08:25:35;;;;;;;3.17;2.10;;;24.60;93.40;;;;;;4806587;29;20134;-71
2022/06/29 08:28:05;;;;;;;2.60;1.80;;;24.70;92.10;;;;;;4790413;29;20411;-69
2022/06/29 08:30:31;;;;;;;3.83;2.08;;;24.90;88.60;;;;;;4821433;29;20051;-70
2022/06/29 08:32:57;;;;;;;2.00;1.67;;;25.00;86.50;;;;;;4806811;29;20200;-71
2022/06/29 08:35:22;;;;;;;2.97;1.88;;;25.00;76.10;;;;;;4821549;29;20134;-71
2022/06/29 08:37:48;;;;;;;2.92;1.83;;;25.00;79.60;;;;;;4820829;29;20059;-69
2022/06/29 08:40:17;;;;;;;3.10;1.95;;;24.90;71.50;;;;;;4821052;29;20059;-71
2022/06/29 08:42:45;;;;;;;2.42;1.77;;;24.90;72.80;;;;;;4820530;29;20055;-71
2022/06/29 08:45:12;;;;;;;3.70;1.90;;;24.90;71.20;;;;;;4821259;29;20496;-71
2022/06/29 08:47:41;;;;;;;4.43;1.67;;;24.70;68.60;;;;;;4820639;29;20103;-69
2022/06/29 08:50:08;;;;;;;2.97;1.85;;;24.60;67.80;;;;;;4806666;29;20050;-69
2022/06/29 08:52:39;;;;;;;2.72;1.67;;;24.60;68.90;;;;;;4798173;29;20118;-70
2022/06/29 08:55:06;;;;;;;3.45;1.92;;;24.70;68.40;;;;;;4782006;29;20051;-69
2022/06/29 08:57:39;;;;;;;4.15;1.95;;;24.70;67.90;;;;;;4781788;29;20062;-69
2022/06/29 09:00:07;;;;;;;4.20;1.63;;;24.80;70.00;;;;;;4767376;29;20054;-71
2022/06/29 09:02:32;;;;;;;2.35;1.80;;;24.90;72.40;;;;;;4757650;30;20055;-70
2022/06/29 09:04:58;;;;;;;3.22;1.95;;;25.10;69.10;;;;;;4772768;30;20066;-72
2022/06/29 09:07:24;;;;;;;2.47;1.70;;;25.20;64.80;;;;;;4802450;29;20055;-71
2022/06/29 09:09:59;;;;;;;2.55;1.67;;;25.40;63.30;;;;;;4787734;29;20059;-69
2022/06/29 09:12:25;;;;;;;3.08;1.80;;;25.70;60.10;;;;;;4780149;29;20068;-71
2022/06/29 09:14:51;;;;;;;2.40;1.95;;;25.70;61.20;;;;;;4776174;30;20134;-72
2022/06/29 09:17:17;;;;;;;4.18;1.70;;;25.80;61.60;;;;;;4769135;30;20613;-71
2022/06/29 09:19:45;;;;;;;2.95;1.70;;;25.90;63.70;;;;;;4773782;29;20479;-70
2022/06/29 09:22:12;;;;;;;3.35;1.80;;;26.00;64.80;;;;;;4778234;30;20481;-72
2022/06/29 09:24:37;;;;;;;3.53;2.00;;;26.00;65.20;;;;;;4778116;30;20062;-71
2022/06/29 09:27:08;;;;;;;2.35;1.75;;;26.00;61.90;;;;;;4771667;30;20135;-72
2022/06/29 09:29:39;;;;;;;2.00;1.80;;;26.20;60.90;;;;;;4769294;30;20087;-71
2022/06/29 09:32:05;;;;;;;2.88;2.05;;;26.20;60.20;;;;;;4769074;30;20066;-72
2022/06/29 09:34:37;;;;;;;3.53;1.88;;;26.30;60.30;;;;;;4769523;30;20055;-70
2022/06/29 09:37:05;;;;;;;2.47;1.52;;;26.20;59.10;;;;;;4777268;29;20192;-71
2022/06/29 09:39:42;;;;;;;3.67;2.25;;;26.30;59.30;;;;;;4787268;29;20058;-70
2022/06/29 09:42:16;;;;;;;2.45;1.88;;;26.10;59.30;;;;;;4817516;29;20425;-73
2022/06/29 09:44:43;;;;;;;4.63;1.80;;;26.10;59.50;;;;;;4786498;29;20436;-71
2022/06/29 09:47:19;;;;;;;2.22;1.90;;;26.00;58.70;;;;;;4786355;29;20059;-71
2022/06/29 09:49:47;;;;;;;3.45;2.22;;;26.00;59.30;;;;;;4781262;30;20516;-70
2022/06/29 09:52:14;;;;;;;3.75;2.00;;;26.10;58.90;;;;;;4777455;30;20090;-69
2022/06/29 09:54:47;;;;;;;2.65;1.70;;;26.10;59.70;;;;;;4782962;30;20063;-71
2022/06/29 09:57:15;;;;;;;4.22;1.95;;;26.20;58.70;;;;;;4784058;29;20055;-71
2022/06/29 10:02:37;;;;;;;2.00;1.80;;;26.10;60.00;;;;;;4768374;30;20420;-70
2022/06/29 10:05:22;;;;;;;2.45;2.03;;;25.90;61.00;;;;;;4778345;30;20055;-69
2022/06/29 10:07:53;;;;;;;2.67;2.13;;;25.80;60.20;;;;;;4786772;29;20055;-70
2022/06/29 10:10:24;;;;;;;2.33;2.03;;;25.60;63.00;;;;;;4787173;29;20463;-71
2022/06/29 10:16:09;;;;;;;4.07;1.95;;;25.70;65.20;;;;;;4769039;30;20403;-71
2022/06/29 10:19:02;;;;;;;3.00;1.92;;;25.80;65.20;;;;;;4769440;30;20462;-69
2022/06/29 10:21:30;;;;;;;4.45;1.98;;;25.90;66.40;;;;;;4786199;29;20131;-70
2022/06/29 10:24:00;;;;;;;2.40;2.20;;;26.30;68.90;;;;;;4786267;30;20384;-70
2022/06/29 10:26:27;;;;;;;3.25;2.30;;;26.30;65.50;;;;;;4787264;30;20059;-69
2022/06/29 10:29:16;;;;;;;3.15;2.20;;;26.50;63.80;;;;;;4771305;29;20059;-69
2022/06/29 10:34:31;;;;;;;2.90;2.20;;;27.00;64.40;;;;;;4786764;29;20059;-69
2022/06/29 10:37:04;;;;;;;2.35;2.10;;;27.20;62.20;;;;;;4787778;29;20059;-69
2022/06/29 10:39:45;;;;;;;3.13;2.28;;;27.50;61.30;;;;;;4787016;29;20059;-69
2022/06/29 10:45:20;;;;;;;2.53;2.33;;;27.50;58.80;;;;;;4783613;29;20493;-69
2022/06/29 10:48:07;;;;;;;3.10;2.65;;;27.50;59.60;;;;;;4787026;29;20128;-70
2022/06/29 10:50:34;;;;;;;4.35;2.45;;;27.60;59.10;;;;;;4787389;29;20056;-70
2022/06/29 10:53:05;;;;;;;2.40;2.20;;;27.50;60.70;;;;;;4787542;29;20066;-69
2022/06/29 10:55:33;;;;;;;2.47;2.20;;;27.50;59.60;;;;;;4787206;29;20062;-69
2022/06/29 10:58:02;;;;;;;4.80;2.05;;;27.60;58.70;;;;;;4787487;29;20048;-69
2022/06/29 11:00:30;;;;;;;2.40;2.00;;;27.60;57.90;;;;;;4786545;30;20454;-70
2022/06/29 11:02:56;;;;;;;2.00;1.90;;;27.60;57.40;;;;;;4787215;29;20089;-69
2022/06/29 11:05:23;;;;;;;4.07;2.50;;;27.60;56.60;;;;;;4786562;29;20051;-70
2022/06/29 11:13:30;;;;;;;4.15;2.50;;;27.50;56.80;;;;;;4785048;29;20051;-70
2022/06/29 11:15:59;;;;;;;4.90;2.80;;;27.30;58.30;;;;;;4795449;29;20051;-70
2022/06/29 11:18:31;;;;;;;2.75;2.55;;;27.10;58.20;;;;;;4765378;29;20417;-70
2022/06/29 11:21:02;;;;;;;2.95;2.50;;;27.00;58.80;;;;;;4795136;29;20468;-70
2022/06/29 11:23:30;;;;;;;3.78;2.40;;;27.00;60.00;;;;;;4797395;29;20138;-69
2022/06/29 11:25:56;;;;;;;3.17;2.40;;;27.10;59.90;;;;;;4789371;29;20081;-70
2022/06/29 11:28:25;;;;;;;2.90;2.70;;;27.00;59.90;;;;;;4807410;29;20362;-70
2022/06/29 11:31:08;;;;;;;3.28;2.92;;;27.00;60.10;;;;;;4808625;29;20077;-70
2022/06/29 11:33:39;;;;;;;4.40;3.00;;;27.00;58.80;;;;;;4807668;29;20146;-70
2022/06/29 11:36:07;;;;;;;3.30;3.00;;;27.00;58.80;;;;;;4792123;29;20050;-71
2022/06/29 11:38:40;;;;;;;6.50;3.38;;;27.00;58.70;;;;;;4806856;29;20115;-71
2022/06/29 11:41:13;;;;;;;3.20;2.90;;;27.10;58.30;;;;;;4774026;30;20188;-71
2022/06/29 11:43:39;;;;;;;4.70;2.83;;;27.20;60.30;;;;;;4800764;29;20054;-71
2022/06/29 11:46:05;;;;;;;3.85;3.10;;;27.40;61.70;;;;;;4822292;29;20057;-70
2022/06/29 11:49:33;;;;;;;4.07;2.63;;;27.40;61.90;;;;;;4821264;29;20133;-71
2022/06/29 11:51:19;;;;;;;3.63;2.60;;;27.50;62.40;;;;;;4807911;29;20063;-70
2022/06/29 11:54:35;;;;;;;3.92;2.90;;;27.50;61.90;;;;;;4805680;29;20051;-71
2022/06/29 11:57:07;;;;;;;3.30;2.78;;;27.50;62.90;;;;;;4807748;29;20058;-71
2022/06/29 11:59:34;;;;;;;3.22;2.92;;;27.70;62.60;;;;;;4791829;29;20074;-69
2022/06/29 12:02:00;;;;;;;3.75;3.45;;;27.80;61.50;;;;;;4787717;30;20479;-71
2022/06/29 12:04:39;;;;;;;4.47;3.30;;;28.00;61.40;;;;;;4773726;30;20055;-70
2022/06/29 12:07:16;;;;;;;3.75;3.17;;;28.10;62.90;;;;;;4800730;29;20135;-70
2022/06/29 12:12:33;;;;;;;;;;;28.10;62.70;;;;;;4791748;29;20138;-69
2022/06/29 12:19:06;;;;;;;3.33;3.03;;;27.90;62.70;;;;;;4806739;29;20054;-70
2022/06/29 12:21:32;;;;;;;4.05;3.40;;;27.90;63.60;;;;;;4790988;29;20480;-70
2022/06/29 12:23:57;;;;;;;3.40;3.10;;;27.80;62.80;;;;;;4791245;29;20121;-70
2022/06/29 12:26:25;;;;;;;4.45;3.33;;;27.80;63.40;;;;;;4783450;29;20130;-71
2022/06/29 12:28:51;;;;;;;4.32;3.10;;;27.70;62.90;;;;;;4780875;29;20054;-70
2022/06/29 12:31:16;;;;;;;3.90;3.60;;;27.70;64.80;;;;;;4779540;29;20386;-68
2022/06/29 12:33:42;;;;;;;4.63;3.40;;;27.80;66.30;;;;;;4785649;29;20047;-71
2022/06/29 12:36:07;;;;;;;4.00;3.70;;;27.80;64.60;;;;;;4782954;29;20054;-71
2022/06/29 12:38:33;;;;;;;4.40;3.40;;;27.80;63.20;;;;;;4783160;29;20055;-71
2022/06/29 12:40:59;;;;;;;4.28;3.88;;;27.80;62.80;;;;;;4781067;29;20497;-73
2022/06/29 12:43:24;;;;;;;3.95;3.53;;;27.80;62.30;;;;;;4782514;29;20058;-71
2022/06/29 12:45:50;;;;;;;3.47;3.08;;;27.80;63.10;;;;;;4775544;29;20138;-71
2022/06/29 12:48:15;;;;;;;4.03;3.67;;;28.00;62.70;;;;;;4804875;29;20153;-70
2022/06/29 12:50:41;;;;;;;3.58;3.22;;;28.20;64.70;;;;;;4807055;29;20055;-72
2022/06/29 12:53:07;;;;;;;4.30;3.33;;;28.40;62.80;;;;;;4789001;29;20051;-71
2022/06/29 12:55:32;;;;;;;4.78;3.28;;;28.60;61.40;;;;;;4807125;29;20058;-70
2022/06/29 12:57:58;;;;;;;6.68;3.83;;;28.70;60.50;;;;;;4790616;29;20062;-70
2022/06/29 13:00:23;;;;;;;5.43;3.70;;;28.70;60.10;;;;;;4776006;29;20055;-71
2022/06/29 13:02:49;;;;;;;10.32;3.97;;;28.60;59.70;;;;;;4806267;29;20059;-71
2022/06/29 13:05:15;;;;;;;4.75;4.45;;;28.60;59.70;;;;;;4788250;29;20766;-71
2022/06/29 13:07:40;;;;;;;4.38;3.97;;;28.40;59.00;;;;;;4806440;29;20121;-67
2022/06/29 13:10:06;;;;;;;6.53;3.38;;;28.30;58.70;;;;;;4800628;29;20053;-69
2022/06/29 13:12:33;;;;;;;4.28;3.35;;;28.30;59.80;;;;;;4784000;29;20134;-70
2022/06/29 13:14:59;;;;;;;4.68;3.47;;;28.20;59.10;;;;;;4785430;29;20058;-70
2022/06/29 13:17:24;;;;;;;3.72;3.35;;;28.20;60.10;;;;;;4790045;29;20054;-71
2022/06/29 13:19:50;;;;;;;4.07;3.70;;;28.20;60.80;;;;;;4797548;29;20119;-70
2022/06/29 13:22:16;;;;;;;3.70;3.40;;;28.20;61.00;;;;;;4790688;29;20070;-69
2022/06/29 13:24:43;;;;;;;3.40;3.10;;;28.20;61.60;;;;;;4790357;29;20059;-70
2022/06/29 13:27:09;;;;;;;5.20;3.90;;;28.30;61.20;;;;;;4789804;29;20054;-69
2022/06/29 13:29:35;;;;;;;4.05;3.33;;;28.30;60.50;;;;;;4806609;29;20051;-72
2022/06/29 13:32:01;;;;;;;3.88;3.50;;;28.20;60.70;;;;;;4806141;29;20133;-70
2022/06/29 13:34:28;;;;;;;4.53;3.60;;;28.20;61.20;;;;;;4789377;29;20050;-70
2022/06/29 13:36:55;;;;;;;3.92;3.33;;;28.10;61.60;;;;;;4774110;29;20409;-71
2022/06/29 13:39:21;;;;;;;3.85;3.25;;;28.10;61.10;;;;;;4801419;29;20158;-71